createdAt,value
2019-04-21T00:00:39.685Z,55.40
2019-04-21T00:03:18.240Z,55.60
2019-04-21T00:06:03.229Z,55.80
2019-04-21T00:09:04.297Z,55.80
2019-04-21T00:13:42.514Z,55.90
2019-04-21T00:16:12.261Z,56.00
2019-04-21T00:19:09.272Z,55.90
2019-04-21T00:21:40.497Z,55.90
2019-04-21T00:24:26.544Z,55.90
2019-04-21T00:27:06.960Z,56.10
2019-04-21T00:32:10.010Z,56.40
2019-04-21T00:34:30.165Z,56.20
2019-04-21T00:37:12.202Z,56.30
2019-04-21T00:40:01.908Z,57.00
2019-04-21T00:42:29.198Z,56.30
2019-04-21T00:44:59.148Z,56.30
2019-04-21T00:47:51.145Z,56.10
2019-04-21T00:50:11.010Z,56.20
2019-04-21T00:52:56.260Z,56.20
2019-04-21T00:55:27.641Z,56.20
2019-04-21T00:58:00.071Z,56.30
2019-04-21T01:00:27.351Z,56.30
2019-04-21T01:03:14.760Z,56.40
2019-04-21T01:05:35.282Z,56.60
2019-04-21T01:08:08.715Z,56.70
2019-04-21T01:10:31.958Z,56.70
2019-04-21T01:13:20.387Z,57.00
2019-04-21T01:15:48.978Z,57.20
2019-04-21T01:18:20.993Z,57.20
2019-04-21T01:20:30.852Z,57.30
2019-04-21T01:23:02.318Z,57.30
2019-04-21T01:25:38.197Z,57.60
2019-04-21T01:28:27.028Z,57.80
2019-04-21T01:30:57.082Z,57.70
2019-04-21T01:33:38.023Z,58.20
2019-04-21T01:36:03.914Z,58.00
2019-04-21T01:39:00.963Z,57.90
2019-04-21T01:41:21.056Z,58.00
2019-04-21T01:43:51.596Z,58.10
2019-04-21T01:46:24.534Z,58.10
2019-04-21T01:48:49.436Z,58.00
2019-04-21T01:51:22.316Z,58.20
2019-04-21T01:54:11.143Z,58.20
2019-04-21T01:56:53.883Z,58.30
2019-04-21T01:59:14.231Z,58.30
2019-04-21T02:02:02.334Z,59.00
2019-04-21T02:04:39.667Z,58.50
2019-04-21T02:07:07.415Z,58.50
2019-04-21T02:09:43.220Z,58.40
2019-04-21T02:12:18.846Z,58.50
2019-04-21T02:15:01.103Z,58.80
2019-04-21T02:17:23.758Z,59.50
2019-04-21T02:19:51.501Z,59.10
2019-04-21T02:22:47.847Z,59.00
2019-04-21T02:25:11.309Z,59.40
2019-04-21T02:27:36.061Z,59.30
2019-04-21T02:30:22.332Z,59.50
2019-04-21T02:33:13.729Z,59.50
2019-04-21T02:38:23.848Z,59.80
2019-04-21T02:46:03.919Z,60.50
2019-04-21T02:48:38.289Z,60.60
2019-04-21T02:51:12.746Z,60.50
2019-04-21T02:54:32.374Z,61.50
2019-04-21T02:56:27.841Z,60.60
2019-04-21T03:07:01.728Z,61.00
2019-04-21T03:09:30.957Z,60.90
2019-04-21T03:17:17.857Z,61.00
2019-04-21T03:20:03.047Z,61.30
2019-04-21T03:22:22.582Z,61.20
2019-04-21T03:25:04.314Z,61.30
2019-04-21T03:30:26.324Z,61.70
2019-04-21T03:35:49.443Z,61.70
2019-04-21T03:46:15.965Z,62.10
2019-04-21T03:54:21.932Z,62.80
2019-04-21T03:59:25.063Z,63.60
2019-04-21T04:02:16.302Z,63.50
2019-04-21T04:05:08.833Z,64.00
2019-04-21T04:07:44.043Z,64.40
2019-04-21T04:10:13.535Z,64.40
2019-04-21T04:12:52.206Z,64.80
2019-04-21T04:15:34.792Z,64.20
2019-04-21T04:17:58.796Z,64.40
2019-04-21T04:20:54.954Z,64.40
2019-04-21T04:25:35.481Z,64.70
2019-04-21T04:28:27.824Z,65.10
2019-04-21T04:33:21.012Z,65.30
2019-04-21T04:36:08.391Z,65.40
2019-04-21T04:38:39.265Z,65.80
2019-04-21T04:41:14.565Z,65.80
2019-04-21T04:43:33.045Z,65.80
2019-04-21T04:46:17.839Z,66.10
2019-04-21T04:48:55.329Z,66.10
2019-04-21T04:51:14.437Z,66.40
2019-04-21T04:53:58.699Z,66.40
2019-04-21T05:01:34.946Z,66.80
2019-04-21T05:04:08.392Z,66.90
2019-04-21T05:06:42.400Z,66.80
2019-04-21T05:09:15.526Z,66.80
2019-04-21T05:14:16.750Z,67.00
2019-04-21T05:16:49.828Z,67.10
2019-04-21T05:19:14.599Z,67.20
2019-04-21T05:21:40.500Z,67.50
2019-04-21T05:24:07.518Z,67.90
2019-04-21T05:26:39.094Z,68.20
2019-04-21T05:29:10.914Z,68.10
2019-04-21T05:32:05.002Z,68.10
2019-04-21T05:34:42.604Z,68.40
2019-04-21T05:37:00.980Z,68.30
2019-04-21T05:39:37.509Z,68.60
2019-04-21T05:42:02.846Z,68.60
2019-04-21T05:45:00.191Z,68.60
2019-04-21T05:49:49.788Z,68.70
2019-04-21T05:52:22.806Z,68.80
2019-04-21T05:55:06.229Z,68.80
2019-04-21T05:57:33.569Z,68.90
2019-04-21T06:00:10.328Z,68.60
2019-04-21T06:02:56.338Z,68.60
2019-04-21T06:05:29.745Z,68.90
2019-04-21T06:07:52.529Z,69.20
2019-04-21T06:10:31.526Z,69.90
2019-04-21T06:13:12.918Z,69.00
2019-04-21T06:15:47.218Z,69.30
2019-04-21T06:18:16.318Z,69.30
2019-04-21T06:20:51.799Z,69.30
2019-04-21T06:23:32.754Z,68.90
2019-04-21T06:26:17.920Z,68.80
2019-04-21T06:28:40.097Z,68.50
2019-04-21T06:31:12.087Z,68.30
2019-04-21T06:33:45.901Z,68.00
2019-04-21T06:41:32.674Z,66.90
2019-04-21T06:44:01.594Z,66.30
2019-04-21T06:46:40.802Z,65.90
2019-04-21T06:51:32.361Z,65.00
2019-04-21T06:56:40.966Z,64.00
2019-04-21T06:59:06.332Z,63.60
2019-04-21T07:01:42.490Z,63.10
2019-04-21T07:04:18.795Z,62.70
2019-04-21T07:09:20.429Z,61.90
2019-04-21T07:11:44.094Z,61.50
2019-04-21T07:14:37.997Z,60.80
2019-04-21T07:19:30.704Z,60.80
2019-04-21T07:21:55.607Z,59.80
2019-04-21T07:24:31.945Z,59.00
2019-04-21T07:27:04.244Z,58.60
2019-04-21T07:29:34.773Z,58.30
2019-04-21T07:32:20.798Z,58.00
2019-04-21T07:34:38.493Z,57.80
2019-04-21T07:37:06.521Z,57.30
2019-04-21T07:39:40.783Z,56.90
2019-04-21T07:42:23.775Z,56.30
2019-04-21T07:44:52.294Z,55.50
2019-04-21T07:47:46.422Z,55.00
2019-04-21T07:50:27.405Z,54.50
2019-04-21T07:55:35.818Z,53.80
2019-04-21T07:58:55.069Z,53.50
2019-04-21T08:01:25.712Z,52.30
2019-04-21T08:04:03.853Z,52.50
2019-04-21T08:06:33.876Z,52.40
2019-04-21T08:09:02.668Z,51.30
2019-04-21T08:11:28.260Z,51.30
2019-04-21T08:14:01.069Z,51.10
2019-04-21T08:16:36.773Z,51.30
2019-04-21T08:19:09.652Z,51.00
2019-04-21T08:21:42.603Z,50.70
2019-04-21T08:24:13.119Z,50.50
2019-04-21T08:27:00.163Z,49.70
2019-04-21T08:29:19.823Z,49.50
2019-04-21T08:36:44.859Z,48.50
2019-04-21T08:39:22.782Z,48.00
2019-04-21T08:41:52.396Z,48.00
2019-04-21T08:44:32.222Z,48.00
2019-04-21T08:47:00.218Z,48.30
2019-04-21T08:49:28.134Z,47.80
2019-04-21T08:52:23.303Z,47.80
2019-04-21T08:54:53.632Z,47.60
2019-04-21T08:57:16.716Z,45.90
2019-04-21T09:00:04.884Z,46.20
2019-04-21T09:05:05.071Z,46.90
2019-04-21T09:10:09.306Z,46.90
2019-04-21T09:12:44.941Z,46.00
2019-04-21T09:15:14.151Z,46.40
2019-04-21T09:17:37.722Z,46.00
2019-04-21T09:20:17.005Z,45.40
2019-04-21T09:22:50.895Z,45.50
2019-04-21T09:25:26.986Z,45.30
2019-04-21T09:27:59.440Z,44.60
2019-04-21T09:30:08.921Z,44.60
2019-04-21T09:32:40.301Z,44.50
2019-04-21T09:35:13.143Z,44.30
2019-04-21T09:37:50.482Z,44.00
2019-04-21T09:40:16.889Z,43.90
2019-04-21T09:42:53.990Z,43.50
2019-04-21T09:45:17.717Z,43.50
2019-04-21T09:47:57.198Z,43.60
2019-04-21T09:50:19.836Z,43.40
2019-04-21T09:52:55.477Z,43.20
2019-04-21T09:55:24.301Z,42.60
2019-04-21T09:57:56.953Z,41.80
2019-04-21T10:00:27.395Z,42.20
2019-04-21T10:03:02.637Z,42.50
2019-04-21T10:05:27.746Z,42.40
2019-04-21T10:07:57.650Z,42.60
2019-04-21T10:10:27.665Z,42.20
2019-04-21T10:12:58.941Z,42.40
2019-04-21T10:15:29.834Z,42.00
2019-04-21T10:18:17.872Z,41.80
2019-04-21T10:20:49.098Z,41.70
2019-04-21T10:23:21.566Z,41.80
2019-04-21T10:25:52.567Z,41.80
2019-04-21T10:28:23.341Z,41.90
2019-04-21T10:30:53.185Z,41.70
2019-04-21T10:33:24.096Z,40.40
2019-04-21T10:35:57.131Z,40.60
2019-04-21T10:38:36.634Z,40.30
2019-04-21T10:41:11.820Z,40.40
2019-04-21T10:43:43.011Z,40.10
2019-04-21T10:46:13.120Z,40.20
2019-04-21T10:48:43.210Z,40.40
2019-04-21T10:51:13.129Z,39.50
2019-04-21T10:53:46.597Z,39.40
2019-04-21T10:56:25.137Z,39.00
2019-04-21T10:58:47.646Z,38.20
2019-04-21T11:01:20.907Z,38.60
2019-04-21T11:03:53.135Z,39.20
2019-04-21T11:06:24.338Z,39.70
2019-04-21T11:08:56.101Z,39.50
2019-04-21T11:11:25.959Z,39.60
2019-04-21T11:13:56.801Z,39.40
2019-04-21T11:16:26.987Z,38.70
2019-04-21T11:18:57.954Z,38.90
2019-04-21T11:21:29.084Z,39.20
2019-04-21T11:23:59.044Z,38.00
2019-04-21T11:26:29.855Z,37.00
2019-04-21T11:29:01.071Z,36.60
2019-04-21T11:31:31.260Z,37.50
2019-04-21T11:34:01.075Z,37.20
2019-04-21T11:36:31.310Z,37.00
2019-04-21T11:39:16.357Z,36.70
2019-04-21T11:41:34.322Z,36.70
2019-04-21T11:44:04.999Z,36.00
2019-04-21T11:46:36.297Z,36.20
2019-04-21T11:49:08.373Z,36.40
2019-04-21T11:51:38.235Z,36.00
2019-04-21T11:54:08.739Z,35.80
2019-04-21T11:56:39.450Z,35.50
2019-04-21T11:59:10.032Z,34.50
2019-04-21T12:01:39.925Z,34.00
2019-04-21T12:04:09.826Z,33.40
2019-04-21T12:06:44.442Z,33.90
2019-04-21T12:09:11.758Z,33.40
2019-04-21T12:11:43.121Z,33.50
2019-04-21T12:14:14.251Z,33.80
2019-04-21T12:16:44.466Z,32.00
2019-04-21T12:27:58.145Z,32.20
2019-04-21T12:30:29.157Z,31.00
2019-04-21T12:33:04.318Z,30.80
2019-04-21T12:35:35.331Z,31.70
2019-04-21T12:38:06.678Z,31.10
2019-04-21T12:40:39.796Z,30.60
2019-04-21T12:43:16.763Z,31.50
2019-04-21T12:45:46.975Z,32.20
2019-04-21T12:48:18.012Z,32.10
2019-04-21T12:50:52.006Z,32.50
2019-04-21T12:53:21.808Z,32.60
2019-04-21T12:55:51.772Z,32.20
2019-04-21T12:58:21.611Z,32.40
2019-04-21T13:00:51.658Z,31.90
2019-04-21T13:03:23.377Z,31.90
2019-04-21T13:05:53.775Z,32.30
2019-04-21T13:08:24.985Z,32.50
2019-04-21T13:10:56.116Z,32.30
2019-04-21T13:13:26.231Z,31.80
2019-04-21T13:15:56.054Z,31.80
2019-04-21T13:18:26.952Z,31.90
2019-04-21T13:20:59.303Z,31.50
2019-04-21T13:23:29.167Z,31.40
2019-04-21T13:26:01.556Z,31.10
2019-04-21T13:28:30.500Z,30.90
2019-04-21T13:31:00.340Z,30.70
2019-04-21T13:33:31.242Z,30.20
2019-04-21T13:36:02.721Z,29.80
2019-04-21T13:38:37.697Z,30.60
2019-04-21T13:41:27.341Z,30.70
2019-04-21T13:43:43.307Z,30.10
2019-04-21T13:46:13.184Z,30.40
2019-04-21T13:48:44.435Z,29.90
2019-04-21T13:51:19.608Z,29.80
2019-04-21T13:53:49.505Z,30.00
2019-04-21T13:56:20.431Z,28.70
2019-04-21T13:58:50.503Z,29.30
2019-04-21T14:01:21.448Z,29.60
2019-04-21T14:03:51.513Z,29.20
2019-04-21T14:06:22.476Z,29.70
2019-04-21T14:08:52.551Z,30.00
2019-04-21T14:11:23.122Z,30.00
2019-04-21T14:13:54.299Z,30.10
2019-04-21T14:16:24.462Z,30.20
2019-04-21T14:18:55.117Z,30.20
2019-04-21T14:21:25.086Z,29.90
2019-04-21T14:23:56.363Z,30.00
2019-04-21T14:26:26.822Z,29.80
2019-04-21T14:28:56.865Z,29.70
2019-04-21T14:31:28.435Z,29.50
2019-04-21T14:33:59.638Z,29.40
2019-04-21T14:36:30.705Z,29.60
2019-04-21T14:39:00.703Z,29.50
2019-04-21T14:41:30.410Z,29.50
2019-04-21T14:44:00.686Z,29.60
2019-04-21T14:46:50.974Z,29.50
2019-04-21T14:49:41.577Z,28.90
2019-04-21T14:52:23.061Z,29.50
2019-04-21T14:54:54.646Z,29.40
2019-04-21T14:57:25.141Z,29.50
2019-04-21T14:59:55.576Z,29.70
2019-04-21T15:02:25.637Z,29.80
2019-04-21T15:04:55.660Z,29.70
2019-04-21T15:07:25.534Z,29.60
2019-04-21T15:10:04.439Z,29.10
2019-04-21T15:12:27.812Z,29.30
2019-04-21T15:14:58.198Z,29.80
2019-04-21T15:17:29.359Z,29.40
2019-04-21T15:20:04.645Z,30.00
2019-04-21T15:22:32.355Z,30.60
2019-04-21T15:25:02.788Z,30.20
2019-04-21T15:27:32.854Z,30.20
2019-04-21T15:30:03.045Z,30.10
2019-04-21T15:32:32.930Z,30.50
2019-04-21T15:35:04.016Z,30.80
2019-04-21T15:37:33.917Z,30.90
2019-04-21T15:40:14.826Z,31.00
2019-04-21T15:42:36.673Z,31.20
2019-04-21T15:45:08.444Z,31.40
2019-04-21T15:47:40.163Z,31.20
2019-04-21T15:50:17.207Z,31.10
2019-04-21T15:52:45.666Z,31.30
2019-04-21T15:55:22.889Z,31.40
2019-04-21T15:57:58.502Z,31.40
2019-04-21T16:00:30.968Z,31.80
2019-04-21T16:03:02.470Z,31.80
2019-04-21T16:05:32.973Z,31.70
2019-04-21T16:08:03.577Z,31.90
2019-04-21T16:10:41.514Z,31.90
2019-04-21T16:13:05.860Z,31.80
2019-04-21T16:15:36.731Z,31.80
2019-04-21T16:18:06.496Z,32.00
2019-04-21T16:20:37.571Z,31.90
2019-04-21T16:23:08.587Z,31.90
2019-04-21T16:25:39.021Z,32.10
2019-04-21T16:28:09.012Z,32.40
2019-04-21T16:30:40.238Z,32.70
2019-04-21T16:33:10.253Z,32.80
2019-04-21T16:35:41.918Z,32.10
2019-04-21T16:38:11.575Z,32.00
2019-04-21T16:40:48.856Z,32.30
2019-04-21T16:43:14.240Z,32.20
2019-04-21T16:45:44.465Z,32.30
2019-04-21T16:48:15.079Z,32.30
2019-04-21T16:50:45.762Z,32.50
2019-04-21T16:53:20.002Z,32.60
2019-04-21T16:56:06.948Z,33.30
2019-04-21T16:58:44.983Z,33.50
2019-04-21T17:01:20.551Z,34.20
2019-04-21T17:03:50.632Z,34.30
2019-04-21T17:06:20.352Z,34.60
2019-04-21T17:08:50.581Z,34.90
2019-04-21T17:11:26.178Z,35.10
2019-04-21T17:13:52.137Z,34.70
2019-04-21T17:19:05.318Z,35.30
2019-04-21T17:21:25.958Z,35.30
2019-04-21T17:23:56.641Z,35.50
2019-04-21T17:26:29.028Z,35.50
2019-04-21T17:28:58.874Z,35.80
2019-04-21T17:31:28.894Z,36.00
2019-04-21T17:34:06.321Z,36.00
2019-04-21T17:36:30.231Z,36.10
2019-04-21T17:39:00.212Z,36.40
2019-04-21T17:41:39.333Z,36.40
2019-04-21T17:44:02.544Z,36.60
2019-04-21T17:46:42.132Z,36.70
2019-04-21T17:49:05.202Z,37.00
2019-04-21T17:51:49.290Z,36.90
2019-04-21T17:54:30.040Z,37.30
2019-04-21T17:57:10.943Z,37.70
2019-04-21T17:59:50.654Z,37.80
2019-04-21T18:02:09.383Z,38.00
2019-04-21T18:04:49.389Z,37.90
2019-04-21T18:07:27.545Z,38.40
2019-04-21T18:12:33.617Z,38.20
2019-04-21T18:15:02.642Z,38.30
2019-04-21T18:17:20.725Z,38.10
2019-04-21T18:19:51.856Z,38.50
2019-04-21T18:22:31.380Z,38.60
2019-04-21T18:25:06.756Z,38.90
2019-04-21T18:27:32.243Z,39.00
2019-04-21T18:30:08.112Z,39.20
2019-04-21T18:32:41.244Z,39.20
2019-04-21T18:35:17.763Z,39.20
2019-04-21T18:38:04.439Z,39.60
2019-04-21T18:40:33.317Z,39.80
2019-04-21T18:43:38.912Z,40.10
2019-04-21T18:46:11.478Z,40.30
2019-04-21T18:48:36.417Z,40.40
2019-04-21T18:51:09.709Z,40.50
2019-04-21T18:53:50.467Z,40.80
2019-04-21T18:56:11.280Z,40.80
2019-04-21T18:58:40.211Z,41.00
2019-04-21T19:01:17.119Z,41.20
2019-04-21T19:03:46.973Z,41.30
2019-04-21T19:06:17.371Z,41.70
2019-04-21T19:09:04.461Z,41.90
2019-04-21T19:11:35.956Z,42.10
2019-04-21T19:14:31.977Z,42.10
2019-04-21T19:16:47.761Z,42.00
2019-04-21T19:21:50.562Z,42.20
2019-04-21T19:24:28.173Z,42.20
2019-04-21T19:31:54.877Z,42.60
2019-04-21T19:34:21.069Z,43.00
2019-04-21T19:36:49.176Z,43.30
2019-04-21T19:39:23.321Z,43.40
2019-04-21T19:41:58.324Z,43.50
2019-04-21T19:44:35.174Z,43.80
2019-04-21T19:47:07.610Z,44.10
2019-04-21T19:49:43.552Z,44.40
2019-04-21T19:52:01.299Z,45.00
2019-04-21T19:54:29.938Z,45.00
2019-04-21T19:56:55.388Z,45.30
2019-04-21T19:59:34.637Z,45.80
2019-04-21T20:01:58.238Z,45.80
2019-04-21T20:04:34.455Z,46.20
2019-04-21T20:07:10.330Z,46.70
2019-04-21T20:09:47.795Z,46.60
2019-04-21T20:12:22.087Z,46.50
2019-04-21T20:15:16.649Z,46.50
2019-04-21T20:17:19.049Z,46.70
2019-04-21T20:19:38.278Z,47.10
2019-04-21T20:22:11.362Z,47.40
2019-04-21T20:24:49.884Z,47.90
2019-04-21T20:27:17.716Z,48.20
2019-04-21T20:30:02.001Z,48.50
2019-04-21T20:32:34.334Z,48.50
2019-04-21T20:35:09.117Z,48.50
2019-04-21T20:37:31.692Z,49.00
2019-04-21T20:39:58.910Z,49.00
2019-04-21T20:42:36.732Z,49.10
2019-04-21T20:45:22.051Z,48.90
2019-04-21T20:47:35.247Z,49.00
2019-04-21T20:50:14.034Z,48.90
2019-04-21T20:52:56.892Z,49.40
2019-04-21T20:55:15.608Z,49.50
2019-04-21T20:57:49.312Z,50.00
2019-04-21T21:00:32.635Z,50.00
2019-04-21T21:03:01.242Z,50.00
2019-04-21T21:05:27.562Z,50.40
2019-04-21T21:08:03.866Z,50.50
2019-04-21T21:10:36.314Z,50.90
2019-04-21T21:13:16.495Z,51.10
2019-04-21T21:15:43.930Z,51.10
2019-04-21T21:18:16.849Z,51.20
2019-04-21T21:20:35.732Z,51.00
2019-04-21T21:23:05.700Z,50.90
2019-04-21T21:25:45.264Z,51.30
2019-04-21T21:28:06.744Z,51.20
2019-04-21T21:30:39.382Z,51.20
2019-04-21T21:33:17.256Z,51.30
2019-04-21T21:35:42.468Z,52.30
2019-04-21T21:38:20.985Z,51.60
2019-04-21T21:40:45.590Z,51.70
2019-04-21T21:43:10.718Z,52.00
2019-04-21T21:45:44.813Z,52.20
2019-04-21T21:48:26.299Z,52.10
2019-04-21T21:50:49.317Z,52.30
2019-04-21T21:53:16.376Z,52.50
2019-04-21T21:55:44.686Z,52.50
2019-04-21T21:58:31.295Z,52.40
2019-04-21T22:01:00.487Z,52.40
2019-04-21T22:03:35.359Z,52.40
2019-04-21T22:06:04.977Z,52.50
2019-04-21T22:08:34.229Z,52.70
2019-04-21T22:11:05.428Z,52.70
2019-04-21T22:13:44.767Z,52.90
2019-04-21T22:16:12.524Z,52.90
2019-04-21T22:19:02.733Z,53.00
2019-04-21T22:21:27.921Z,53.40
2019-04-21T22:23:51.540Z,53.40
2019-04-21T22:26:13.372Z,53.50
2019-04-21T22:28:43.593Z,54.00
2019-04-21T22:31:19.652Z,53.80
2019-04-21T22:33:49.744Z,54.10
2019-04-21T22:36:31.271Z,54.20
2019-04-21T22:39:10.330Z,54.00
2019-04-21T22:41:29.647Z,54.00
2019-04-21T22:43:55.172Z,54.00
2019-04-21T22:46:24.420Z,54.00
2019-04-21T22:48:59.742Z,54.10
2019-04-21T22:51:35.354Z,54.50
2019-04-21T22:53:59.433Z,54.50
2019-04-21T22:56:32.072Z,54.50
2019-04-21T22:59:04.207Z,54.60
2019-04-21T23:01:40.489Z,54.30
2019-04-21T23:04:04.835Z,54.20
2019-04-21T23:06:36.285Z,54.40
2019-04-21T23:09:10.601Z,54.60
2019-04-21T23:11:47.023Z,54.80
2019-04-21T23:14:15.354Z,55.00
2019-04-21T23:16:49.079Z,55.10
2019-04-21T23:19:32.426Z,54.80
2019-04-21T23:22:09.587Z,54.60
2019-04-21T23:24:45.676Z,54.70
2019-04-21T23:27:09.105Z,55.00
2019-04-21T23:29:57.367Z,55.50
2019-04-21T23:32:14.904Z,55.40
2019-04-21T23:34:34.069Z,55.50
2019-04-21T23:37:06.673Z,56.10
2019-04-21T23:39:33.789Z,56.40
2019-04-21T23:42:04.231Z,56.60
2019-04-21T23:44:41.781Z,56.60
2019-04-21T23:47:08.824Z,56.60
2019-04-21T23:49:47.098Z,56.40
2019-04-21T23:52:11.009Z,56.30
2019-04-21T23:54:39.420Z,56.40
2019-04-21T23:57:17.004Z,56.30
2019-04-21T23:59:45.322Z,56.50
